^^
Grace C. Lehan Memorial Weather Station Historical Data
Daily Summary for February 28, 2021 Units:  English    Metric   Both
Daily Weekly Monthly Yearly
  High: Low: Average:
Temperature: 77.5 °F 63.4 °F 71.9 °F
Dew Point: 72.6 °F 58.5 °F 63.1 °F
Humidity: 93% 63.7% 74%
Wind Speed: 6mph 0mph 1.2mph
Wind Gust: 14mph - -
Wind- - ENE
Pressure: 30.28 in 30.11 in -
Precipitation: 0.32 in    
 
 
Tabular Data for February 28, 2021
Time Temperature Dew Point Pressure Wind Wind Speed Wind Gust Humidity Rainfall Rate (Hourly) solar
00:00 77.5 °F 72.6 °F 30.11 in Calm   5 mph 85% 0.00 in 0 W/m2
00:09 77.5 °F 72.6 °F 30.12 in North 0.4 mph 4 mph 85% 0.00 in 0 W/m2
00:14 77.5 °F 72.3 °F 30.12 in Calm   4 mph 84.1% 0.00 in 0 W/m2
00:19 77.5 °F 72.3 °F 30.13 in NNE 0.1 mph 4 mph 84% 0.00 in 0 W/m2
00:24 77.5 °F 72.3 °F 30.13 in North 0.8 mph 4 mph 84% 0.00 in 0 W/m2
00:29 77.4 °F 72.1 °F 30.13 in Calm   4 mph 83.7% 0.00 in 0 W/m2
00:34 77.4 °F 71.8 °F 30.13 in NNW 0.8 mph 9 mph 83% 0.00 in 0 W/m2
00:39 77.4 °F 71.8 °F 30.13 in NNE 0.5 mph 9 mph 83% 0.00 in 0 W/m2
00:44 77.3 °F 71.8 °F 30.13 in NNW 0.2 mph 9 mph 83% 0.00 in 0 W/m2
00:49 77.3 °F 71.7 °F 30.13 in NNW 0.1 mph 9 mph 83% 0.00 in 0 W/m2
00:54 77.2 °F 71.3 °F 30.13 in NE 0.4 mph 9 mph 82.1% 0.00 in 0 W/m2
00:59 77.1 °F 71.1 °F 30.13 in North 0.4 mph 9 mph 81.9% 0.00 in 0 W/m2
01:04 76.9 °F 70.7 °F 30.13 in NNE 1.5 mph 9 mph 81% 0.00 in 0 W/m2
01:09 76.8 °F 70.3 °F 30.13 in North 1.5 mph 9 mph 80.4% 0.00 in 0 W/m2
01:14 76.6 °F 69.9 °F 30.13 in NNE 0.8 mph 9 mph 79.8% 0.00 in 0 W/m2
01:19 76.5 °F 69.9 °F 30.13 in NNE 0.7 mph 9 mph 80% 0.00 in 0 W/m2
01:24 76.4 °F 69.5 °F 30.14 in ENE 0.4 mph 9 mph 79.3% 0.00 in 0 W/m2
01:29 76.2 °F 69.3 °F 30.14 in NNW 0.6 mph 9 mph 79% 0.00 in 0 W/m2
01:34 76.1 °F 69 °F 30.14 in NE 0.7 mph 9 mph 78.7% 0.00 in 0 W/m2
01:39 76 °F 68.6 °F 30.14 in North 1.2 mph 7 mph 78% 0.00 in 0 W/m2
01:44 75.9 °F 68.5 °F 30.14 in ENE 0.2 mph 7 mph 77.9% 0.00 in 0 W/m2
01:49 75.8 °F 68.3 °F 30.15 in North 0.7 mph 7 mph 77.7% 0.00 in 0 W/m2
01:54 75.7 °F 67.9 °F 30.14 in NNE 0.3 mph 7 mph 77% 0.00 in 0 W/m2
01:59 75.5 °F 67.8 °F 30.14 in Calm   7 mph 77% 0.00 in 0 W/m2
02:04 75.4 °F 67.7 °F 30.14 in NNE 0.2 mph 7 mph 77% 0.00 in 0 W/m2
02:09 75.3 °F 67.5 °F 30.15 in NNW 0.6 mph 7 mph 76.8% 0.00 in 0 W/m2
02:14 75.1 °F 67.1 °F 30.14 in NE 0.1 mph 7 mph 76% 0.00 in 0 W/m2
02:19 74.9 °F 67.1 °F 30.15 in ENE 0.6 mph 7 mph 76.5% 0.00 in 0 W/m2
02:24 74.8 °F 66.7 °F 30.15 in NE 0.9 mph 7 mph 76% 0.00 in 0 W/m2
02:29 74.6 °F 66.6 °F 30.15 in NW 0.6 mph 9 mph 76% 0.00 in 0 W/m2
02:34 74.5 °F 66.6 °F 30.15 in NNE 0.8 mph 9 mph 76.3% 0.00 in 0 W/m2
02:39 74.4 °F 66.4 °F 30.16 in NNW 0.4 mph 9 mph 76% 0.00 in 0 W/m2
02:44 74.4 °F 66.5 °F 30.16 in NNE 0.6 mph 9 mph 76.4% 0.00 in 0 W/m2
02:49 74.3 °F 66.3 °F 30.16 in NE 0.2 mph 9 mph 76% 0.00 in 0 W/m2
02:54 74.3 °F 66.2 °F 30.16 in Calm   9 mph 76% 0.00 in 0 W/m2
02:59 74.2 °F 66.2 °F 30.16 in Calm   9 mph 76% 0.00 in 0 W/m2
03:04 74.1 °F 66 °F 30.16 in Calm   9 mph 75.6% 0.00 in 0 W/m2
03:09 74.1 °F 66.1 °F 30.16 in ENE 0.1 mph 2 mph 76% 0.00 in 0 W/m2
03:14 74.1 °F 66 °F 30.16 in NNE 0.6 mph 5 mph 76% 0.00 in 0 W/m2
03:19 74 °F 65.8 °F 30.16 in NE 0.4 mph 5 mph 75.7% 0.00 in 0 W/m2
03:24 74 °F 65.6 °F 30.17 in NE 2.6 mph 7 mph 75% 0.00 in 0 W/m2
03:29 74 °F 64.6 °F 30.17 in ENE 5.2 mph 12 mph 72.3% 0.00 in 0 W/m2
03:34 74.3 °F 63.3 °F 30.16 in ENE 4.9 mph 13 mph 68.5% 0.00 in 0 W/m2
03:39 74.6 °F 63 °F 30.16 in NE 3.6 mph 13 mph 67% 0.00 in 0 W/m2
03:44 74.8 °F 63.3 °F 30.16 in NE 1.2 mph 13 mph 67.3% 0.00 in 0 W/m2
03:49 74.8 °F 63.3 °F 30.17 in ENE 3.9 mph 14 mph 67.3% 0.00 in 0 W/m2
03:54 74.8 °F 62.7 °F 30.17 in ENE 3.2 mph 14 mph 66% 0.00 in 0 W/m2
03:59 74.7 °F 62.6 °F 30.17 in ENE 2.8 mph 14 mph 66% 0.00 in 0 W/m2
04:00 74.7 °F 62.6 °F 30.17 in NE 6 mph 14 mph 66% 0.00 in 0 W/m2
04:09 74.4 °F 62.7 °F 30.17 in ENE 4.9 mph 14 mph 67% 0.00 in 0 W/m2
04:14 74.2 °F 62.7 °F 30.17 in ENE 3.5 mph 14 mph 67.3% 0.00 in 0 W/m2
04:19 74 °F 62.8 °F 30.17 in ENE 2.2 mph 14 mph 68% 0.00 in 0 W/m2
04:24 73.9 °F 62.8 °F 30.18 in NE 1.7 mph 14 mph 68.3% 0.00 in 0 W/m2
04:29 73.7 °F 62.9 °F 30.18 in East 0.7 mph 14 mph 69% 0.00 in 0 W/m2
04:34 73.6 °F 63 °F 30.19 in East 1 mph 14 mph 69.4% 0.00 in 0 W/m2
04:39 73.5 °F 63.1 °F 30.19 in ENE 0.4 mph 5 mph 70% 0.00 in 0 W/m2
04:44 73.3 °F 63.1 °F 30.19 in NE 1.2 mph 8 mph 70.3% 0.00 in 0 W/m2
04:49 73.2 °F 63 °F 30.19 in ENE 1.2 mph 9 mph 70.5% 0.00 in 0 W/m2
04:54 73.1 °F 62.6 °F 30.19 in ENE 4.4 mph 13 mph 69.6% 0.00 in 0 W/m2
04:59 72.9 °F 61.9 °F 30.19 in ENE 2.9 mph 13 mph 68.4% 0.00 in 0 W/m2
05:04 72.9 °F 61.9 °F 30.19 in ENE 2.2 mph 13 mph 68.6% 0.00 in 0 W/m2
05:09 72.8 °F 61.6 °F 30.19 in ENE 2.4 mph 9 mph 68% 0.00 in 0 W/m2
05:14 72.7 °F 61.6 °F 30.20 in ENE 2.8 mph 9 mph 68% 0.00 in 0 W/m2
05:19 72.6 °F 61.4 °F 30.20 in ENE 2.4 mph 13 mph 67.8% 0.00 in 0 W/m2
05:24 72.6 °F 61 °F 30.21 in ENE 2.5 mph 13 mph 67.1% 0.00 in 0 W/m2
05:29 72.4 °F 60.9 °F 30.20 in ENE 2.5 mph 13 mph 67% 0.00 in 0 W/m2
05:34 72.3 °F 60.7 °F 30.20 in ENE 2.4 mph 13 mph 66.9% 0.00 in 0 W/m2
05:39 72.2 °F 60.6 °F 30.21 in ENE 2.2 mph 12 mph 66.9% 0.00 in 0 W/m2
05:44 72.1 °F 60.2 °F 30.21 in ENE 2.4 mph 12 mph 66.2% 0.00 in 0 W/m2
05:49 72 °F 59.8 °F 30.21 in ENE 4.1 mph 12 mph 65.6% 0.00 in 0 W/m2
05:54 71.9 °F 59.7 °F 30.22 in ENE 2.6 mph 12 mph 65.4% 0.00 in 0 W/m2
05:59 71.9 °F 59.5 °F 30.22 in ENE 3.7 mph 12 mph 65% 0.00 in 0 W/m2
06:04 71.8 °F 59.2 °F 30.22 in ENE 2.9 mph 12 mph 64.5% 0.00 in 0 W/m2
06:09 71.8 °F 59 °F 30.23 in ENE 1.6 mph 8 mph 64% 0.00 in 0 W/m2
06:14 71.7 °F 58.9 °F 30.23 in NE 3.3 mph 13 mph 64% 0.00 in 0 W/m2
06:19 71.7 °F 58.7 °F 30.22 in ENE 3.1 mph 13 mph 63.7% 0.00 in 0 W/m2
06:24 71.6 °F 58.8 °F 30.22 in NE 1.6 mph 13 mph 64% 0.00 in 5 W/m2
06:29 71.4 °F 58.6 °F 30.22 in ENE 2 mph 13 mph 64% 0.00 in 9 W/m2
06:34 71.3 °F 58.5 °F 30.22 in NE 1.7 mph 13 mph 64% 0.00 in 14 W/m2
06:39 71.2 °F 58.5 °F 30.22 in ENE 1.9 mph 8 mph 64.1% 0.00 in 19 W/m2
06:44 71.1 °F 58.7 °F 30.22 in NE 3.1 mph 8 mph 65% 0.00 in 26 W/m2
06:49 71 °F 58.7 °F 30.22 in ENE 1.9 mph 8 mph 65% 0.00 in 35 W/m2
06:54 70.9 °F 58.8 °F 30.23 in ENE 1.8 mph 8 mph 65.6% 0.00 in 37 W/m2
06:59 70.9 °F 58.8 °F 30.23 in East 2.5 mph 8 mph 65.5% 0.00 in 54 W/m2
07:04 70.9 °F 59 °F 30.23 in East 1.2 mph 8 mph 66% 0.00 in 54 W/m2
07:09 71 °F 59.2 °F 30.23 in East 1.8 mph 9 mph 66.4% 0.00 in 62 W/m2
07:14 71 °F 59.5 °F 30.24 in ENE 2.6 mph 9 mph 67% 0.00 in 77 W/m2
07:19 71 °F 59.6 °F 30.24 in NE 1.9 mph 9 mph 67.2% 0.00 in 67 W/m2
07:24 71 °F 59.8 °F 30.24 in NE 1.4 mph 9 mph 67.6% 0.00 in 91 W/m2
07:29 71 °F 59.6 °F 30.24 in East 1.4 mph 9 mph 67.4% 0.00 in 98 W/m2
07:34 71 °F 60 °F 30.24 in ENE 2.4 mph 10 mph 68% 0.00 in 98 W/m2
07:39 71 °F 60 °F 30.24 in ENE 2.7 mph 10 mph 68.2% 0.00 in 74 W/m2
07:44 71 °F 60.1 °F 30.25 in ENE 2.1 mph 10 mph 68.4% 0.00 in 79 W/m2
07:49 70.9 °F 60 °F 30.25 in East 1.4 mph 10 mph 68.5% 0.00 in 79 W/m2
07:54 70.9 °F 60.4 °F 30.25 in ENE 1.3 mph 10 mph 69.5% 0.00 in 86 W/m2
07:59 70.9 °F 60.3 °F 30.25 in ENE 1.1 mph 10 mph 69.1% 0.00 in 90 W/m2
08:00 70.9 °F 60.6 °F 30.25 in ENE 1 mph 10 mph 70% 0.00 in 86 W/m2
08:09 70.9 °F 60.8 °F 30.25 in ENE 2.3 mph 10 mph 70.6% 0.00 in 83 W/m2
08:14 70.8 °F 60.9 °F 30.25 in ENE 1.1 mph 10 mph 71% 0.00 in 97 W/m2
08:19 70.8 °F 61.3 °F 30.25 in ENE 1.9 mph 10 mph 71.8% 0.00 in 118 W/m2
08:24 70.8 °F 61.1 °F 30.24 in ENE 2.3 mph 10 mph 71.4% 0.00 in 171 W/m2
08:29 70.8 °F 61.2 °F 30.25 in ENE 1.8 mph 10 mph 71.6% 0.00 in 107 W/m2
08:34 70.8 °F 61.4 °F 30.25 in ENE 1.7 mph 10 mph 72% 0.00 in 111 W/m2
08:39 70.8 °F 61.3 °F 30.25 in NE 1.8 mph 8 mph 72% 0.00 in 135 W/m2
08:44 70.8 °F 61.4 °F 30.25 in ENE 1.6 mph 8 mph 72.2% 0.00 in 158 W/m2
08:49 70.8 °F 61.5 °F 30.25 in East 1.8 mph 8 mph 72.3% 0.00 in 142 W/m2
08:54 70.8 °F 61.7 °F 30.25 in ENE 1 mph 8 mph 73% 0.00 in 148 W/m2
08:59 70.8 °F 62.1 °F 30.25 in ENE 0.9 mph 8 mph 73.9% 0.00 in 130 W/m2
09:04 70.9 °F 62.3 °F 30.25 in NE 1.4 mph 8 mph 74% 0.00 in 123 W/m2
09:09 71 °F 62.6 °F 30.25 in NE 1 mph 6 mph 74.7% 0.00 in 135 W/m2
09:14 71.1 °F 62.5 °F 30.25 in NE 2 mph 9 mph 74.4% 0.00 in 151 W/m2
09:19 71.2 °F 62.6 °F 30.25 in NE 2.9 mph 9 mph 74.4% 0.00 in 162 W/m2
09:24 71.2 °F 62.5 °F 30.25 in ENE 1.3 mph 9 mph 74% 0.00 in 171 W/m2
09:29 71.3 °F 62.8 °F 30.25 in NE 1 mph 9 mph 74.5% 0.00 in 171 W/m2
09:34 71.4 °F 62.8 °F 30.25 in NE 2.6 mph 9 mph 74.2% 0.00 in 162 W/m2
09:39 71.4 °F 62.7 °F 30.25 in NE 0.6 mph 7 mph 74.1% 0.00 in 148 W/m2
09:44 71.4 °F 63.1 °F 30.25 in NE 2.6 mph 7 mph 75% 0.00 in 162 W/m2
09:49 71.5 °F 63.1 °F 30.25 in NE 1.5 mph 10 mph 74.8% 0.00 in 134 W/m2
09:54 71.4 °F 62.9 °F 30.26 in ENE 1.5 mph 10 mph 74.5% 0.00 in 135 W/m2
09:59 71.3 °F 62.8 °F 30.25 in ENE 1.8 mph 10 mph 74.5% 0.00 in 130 W/m2
10:04 71.3 °F 63 °F 30.25 in NE 2.5 mph 10 mph 75% 0.00 in 139 W/m2
10:09 71.3 °F 63 °F 30.25 in ENE 1.4 mph 9 mph 75% 0.00 in 127 W/m2
10:14 71.3 °F 63 °F 30.25 in NE 2.1 mph 9 mph 75% 0.00 in 128 W/m2
10:19 71.3 °F 63 °F 30.25 in NE 2.6 mph 9 mph 75% 0.00 in 137 W/m2
10:24 71.3 °F 63 °F 30.25 in East 1 mph 9 mph 75.1% 0.00 in 171 W/m2
10:29 71.4 °F 63.4 °F 30.26 in ENE 1.8 mph 9 mph 75.8% 0.00 in 197 W/m2
10:34 71.5 °F 63.2 °F 30.26 in NE 3.3 mph 10 mph 75% 0.00 in 213 W/m2
10:39 71.6 °F 63.3 °F 30.26 in NE 3.4 mph 10 mph 75% 0.00 in 202 W/m2
10:44 71.7 °F 63.3 °F 30.26 in ENE 2.1 mph 10 mph 74.9% 0.00 in 200 W/m2
10:49 71.8 °F 63.4 °F 30.26 in East 1.9 mph 10 mph 74.7% 0.00 in 213 W/m2
10:54 72 °F 63.3 °F 30.27 in NE 4 mph 10 mph 74.3% 0.00 in 183 W/m2
10:59 72 °F 62.7 °F 30.27 in East 2.1 mph 10 mph 72.6% 0.00 in 130 W/m2
11:04 71.9 °F 62.7 °F 30.27 in ENE 3.4 mph 10 mph 72.8% 0.00 in 160 W/m2
11:09 71.8 °F 62.6 °F 30.27 in ENE 3.2 mph 14 mph 72.8% 0.00 in 172 W/m2
11:14 71.8 °F 62.7 °F 30.27 in ENE 1.1 mph 14 mph 72.9% 0.00 in 188 W/m2
11:19 71.9 °F 62.8 °F 30.27 in NE 3.4 mph 14 mph 73% 0.00 in 186 W/m2
11:24 72.1 °F 63 °F 30.27 in ENE 1.2 mph 14 mph 73% 0.00 in 206 W/m2
11:29 72.3 °F 63 °F 30.27 in East 1.3 mph 14 mph 72.4% 0.00 in 234 W/m2
11:34 72.5 °F 62.9 °F 30.26 in East 2 mph 14 mph 72% 0.00 in 267 W/m2
11:39 72.6 °F 62.9 °F 30.26 in East 1.4 mph 5 mph 71.5% 0.00 in 267 W/m2
11:44 72.7 °F 62.9 °F 30.26 in ENE 1.3 mph 5 mph 71.1% 0.00 in 274 W/m2
11:49 72.9 °F 62.7 °F 30.26 in East 3.5 mph 7 mph 70.4% 0.00 in 290 W/m2
11:54 72.9 °F 62.7 °F 30.26 in ENE 1.6 mph 7 mph 70.3% 0.00 in 304 W/m2
11:59 73 °F 63 °F 30.26 in NE 1.5 mph 11 mph 70.8% 0.00 in 285 W/m2
12:00 73.1 °F 63.2 °F 30.26 in ENE 2 mph 11 mph 71% 0.00 in 181 W/m2
12:09 73.3 °F 62.9 °F 30.26 in ENE 1.4 mph 9 mph 69.8% 0.00 in 262 W/m2
12:14 73.6 °F 63.5 °F 30.26 in ENE 2.2 mph 9 mph 70.8% 0.00 in 285 W/m2
12:19 73.9 °F 63.2 °F 30.26 in ENE 2.4 mph 9 mph 69.3% 0.00 in 283 W/m2
12:24 74.1 °F 63.5 °F 30.26 in NE 1.6 mph 9 mph 69.4% 0.00 in 262 W/m2
12:29 74.5 °F 63.5 °F 30.26 in NE 0.1 mph 9 mph 68.6% 0.00 in 246 W/m2
12:33 74.6 °F 63.3 °F 30.26 in NE 0.3 mph 9 mph 67.8% 0.00 in 223 W/m2
12:39 74.7 °F 63.5 °F 30.26 in NE 0.1 mph 3 mph 68.1% 0.00 in 225 W/m2
12:44 74.7 °F 63.2 °F 30.26 in NE 0.1 mph 3 mph 67.4% 0.00 in 236 W/m2
12:49 74.9 °F 63.5 °F 30.26 in ENE 0.6 mph 4 mph 67.9% 0.00 in 299 W/m2
12:54 75 °F 63.9 °F 30.26 in East 0.2 mph 4 mph 68.3% 0.00 in 366 W/m2
12:59 75.2 °F 63.4 °F 30.26 in Calm   4 mph 66.9% 0.00 in 496 W/m2
13:04 75.4 °F 63.7 °F 30.26 in East 0.1 mph 4 mph 66.9% 0.00 in 487 W/m2
13:09 75.6 °F 63.4 °F 30.26 in East 0.1 mph 2 mph 65.7% 0.00 in 459 W/m2
13:14 75.7 °F 62.8 °F 30.26 in East 0.6 mph 4 mph 64.3% 0.00 in 388 W/m2
13:19 75.7 °F 63.4 °F 30.26 in East 0.1 mph 4 mph 65.6% 0.00 in 367 W/m2
13:24 75.9 °F 63.5 °F 30.26 in NNE 0.1 mph 4 mph 65.4% 0.00 in 383 W/m2
13:29 76.2 °F 64.5 °F 30.26 in NNE 1 mph 5 mph 67.2% 0.00 in 374 W/m2
13:34 76.3 °F 64.7 °F 30.26 in Calm   5 mph 67.3% 0.00 in 533 W/m2
13:39 76.6 °F 64.6 °F 30.26 in NE 0.2 mph 2 mph 66.5% 0.00 in 652 W/m2
13:44 77 °F 65.1 °F 30.26 in NE 1.1 mph 6 mph 66.8% 0.00 in 547 W/m2
13:49 77.2 °F 64.6 °F 30.26 in NE 0.2 mph 6 mph 65.2% 0.00 in 297 W/m2
13:54 77.2 °F 64.3 °F 30.26 in NE 0.5 mph 6 mph 64.5% 0.00 in 359 W/m2
13:59 77.1 °F 64.6 °F 30.26 in NE 0.6 mph 6 mph 65.3% 0.00 in 359 W/m2
14:04 76.8 °F 64.5 °F 30.25 in NE 0.5 mph 6 mph 65.8% 0.00 in 404 W/m2
14:09 76.9 °F 64.9 °F 30.25 in ENE 0.3 mph 3 mph 66.6% 0.00 in 425 W/m2
14:14 77.1 °F 65.5 °F 30.25 in ENE 1.2 mph 4 mph 67.4% 0.00 in 728 W/m2
14:19 77.3 °F 64.5 °F 30.25 in ENE 1.6 mph 6 mph 64.6% 0.00 in 636 W/m2
14:24 77.2 °F 64.6 °F 30.25 in Calm   6 mph 65.3% 0.00 in 436 W/m2
14:29 77.2 °F 64.6 °F 30.25 in NE 1 mph 6 mph 65.1% 0.00 in 362 W/m2
14:34 77.4 °F 64.3 °F 30.25 in ENE 1.2 mph 6 mph 64% 0.00 in 341 W/m2
14:39 77.4 °F 65.4 °F 30.25 in NNE 0.7 mph 5 mph 66.6% 0.00 in 346 W/m2
14:44 77.5 °F 65.8 °F 30.25 in NW 1.4 mph 8 mph 67.3% 0.00 in 304 W/m2
14:48 77.4 °F 65.5 °F 30.24 in North 1.1 mph 8 mph 66.8% 0.00 in 269 W/m2
14:54 76.9 °F 64.6 °F 30.24 in ENE 2.3 mph 11 mph 66% 0.00 in 246 W/m2
14:59 76.3 °F 64.3 °F 30.24 in ENE 2.3 mph 11 mph 66.4% 0.00 in 246 W/m2
15:04 75.8 °F 63.8 °F 30.25 in NE 1.9 mph 11 mph 66.3% 0.00 in 176 W/m2
15:09 75.4 °F 63.8 °F 30.25 in East 0.8 mph 9 mph 67.2% 0.00 in 113 W/m2
15:14 74.9 °F 63.3 °F 30.24 in NE 1.2 mph 9 mph 67.3% 0.00 in 116 W/m2
15:19 74.6 °F 63.6 °F 30.24 in NE 0.3 mph 9 mph 68.6% 0.00 in 120 W/m2
15:24 74.5 °F 63.8 °F 30.24 in NE 1.2 mph 9 mph 69.3% 0.00 in 97 W/m2
15:29 74.1 °F 63.7 °F 30.24 in NE 0.8 mph 9 mph 70% 0.00 in 109 W/m2
15:34 73.6 °F 63.3 °F 30.24 in ENE 2.2 mph 9 mph 70.3% 0.00 in 114 W/m2
15:39 73.1 °F 63.2 °F 30.24 in NNE 1 mph 6 mph 71.2% 0.00 in 105 W/m2
15:44 72.9 °F 63.5 °F 30.24 in NE 1.1 mph 6 mph 72.2% 0.00 in 134 W/m2
15:49 72.9 °F 63.6 °F 30.24 in NE 0.4 mph 6 mph 72.7% 0.00 in 134 W/m2
15:54 72.8 °F 63.4 °F 30.24 in ENE 1.7 mph 6 mph 72.2% 0.00 in 114 W/m2
15:59 72.8 °F 63.2 °F 30.24 in NE 1 mph 6 mph 72% 0.00 in 105 W/m2
16:04 72.7 °F 63.2 °F 30.24 in Calm     72% 0.00 in 83 W/m2
16:09 72.7 °F 62.6 °F 30.24 in ENE 1 mph 4 mph 70.6% 0.00 in 84 W/m2
16:14 72.7 °F 62.2 °F 30.24 in ENE 0.3 mph 4 mph 69.7% 0.00 in 86 W/m2
16:19 72.7 °F 62 °F 30.24 in ENE 0.9 mph 5 mph 69.2% 0.00 in 105 W/m2
16:24 72.7 °F 61.9 °F 30.24 in East 1.5 mph 5 mph 68.8% 0.00 in 120 W/m2
16:29 72.7 °F 62.1 °F 30.25 in East 1.4 mph 6 mph 69.5% 0.00 in 132 W/m2
16:34 72.6 °F 62.4 °F 30.24 in East 0.8 mph 6 mph 70.2% 0.00 in 137 W/m2
16:39 72.7 °F 62.5 °F 30.24 in ENE 0.8 mph 4 mph 70.5% 0.00 in 151 W/m2
16:44 72.6 °F 61.9 °F 30.25 in SE 0.3 mph 4 mph 69.1% 0.00 in 160 W/m2
16:49 72.6 °F 61.9 °F 30.25 in SE 0.4 mph 6 mph 69.1% 0.00 in 163 W/m2
16:54 72.6 °F 62.1 °F 30.24 in ESE 0.2 mph 6 mph 69.5% 0.00 in 165 W/m2
16:59 72.7 °F 61.6 °F 30.25 in ESE 0.2 mph 6 mph 68.2% 0.00 in 125 W/m2
17:04 72.6 °F 61.3 °F 30.25 in ESE 0.8 mph 6 mph 67.5% 0.00 in 118 W/m2
17:09 72.5 °F 61.6 °F 30.25 in East 0.5 mph 5 mph 68.6% 0.00 in 123 W/m2
17:14 72.5 °F 62 °F 30.25 in East 0.1 mph 5 mph 69.7% 0.00 in 118 W/m2
17:19 72.5 °F 62.3 °F 30.25 in East 0.2 mph 5 mph 70.2% 0.00 in 113 W/m2
17:24 72.6 °F 62 °F 30.25 in East 0.2 mph 5 mph 69.4% 0.00 in 107 W/m2
17:29 72.6 °F 62.4 °F 30.25 in East 0.9 mph 5 mph 70.4% 0.00 in 86 W/m2
17:34 72.6 °F 62.4 °F 30.25 in Calm   5 mph 70.3% 0.00 in 84 W/m2
17:39 72.6 °F 62.5 °F 30.25 in Calm     70.7% 0.00 in 83 W/m2
17:44 72.5 °F 62.4 °F 30.25 in Calm   2 mph 70.6% 0.00 in 70 W/m2
17:49 72.4 °F 62.6 °F 30.25 in Calm   2 mph 71.4% 0.00 in 58 W/m2
17:54 72.3 °F 62.7 °F 30.25 in Calm   2 mph 71.7% 0.00 in 51 W/m2
17:59 72.3 °F 62.9 °F 30.25 in Calm   2 mph 72.3% 0.00 in 54 W/m2
18:04 72.3 °F 63.1 °F 30.25 in ENE 0.3 mph 3 mph 72.8% 0.00 in 54 W/m2
18:09 72.1 °F 62.6 °F 30.25 in ENE 2.5 mph 6 mph 72.1% 0.00 in 53 W/m2
18:14 71.9 °F 62.4 °F 30.25 in NE 1.5 mph 6 mph 72.2% 0.00 in 49 W/m2
18:19 71.7 °F 62.2 °F 30.25 in ENE 1.2 mph 6 mph 72% 0.00 in 47 W/m2
18:24 71.6 °F 62.3 °F 30.25 in ENE 1.2 mph 6 mph 72.7% 0.00 in 42 W/m2
18:29 71.4 °F 62.2 °F 30.25 in NE 1.1 mph 7 mph 72.7% 0.00 in 42 W/m2
18:34 71.2 °F 62.1 °F 30.25 in ENE 2.1 mph 7 mph 73% 0.00 in 37 W/m2
18:39 71 °F 61.9 °F 30.25 in ENE 3.8 mph 10 mph 73% 0.00 in 30 W/m2
18:44 70.7 °F 61.9 °F 30.25 in East 1.1 mph 10 mph 73.6% 0.00 in 25 W/m2
18:49 70.5 °F 62 °F 30.25 in ENE 1.7 mph 10 mph 74.3% 0.00 in 21 W/m2
18:54 70.4 °F 62 °F 30.25 in East 2.1 mph 10 mph 74.7% 0.00 in 21 W/m2
18:59 70.2 °F 61.9 °F 30.25 in East 1.2 mph 10 mph 75.2% 0.00 in 14 W/m2
19:04 69.9 °F 61.8 °F 30.25 in East 2.3 mph 10 mph 75.4% 0.00 in 9 W/m2
19:09 69.7 °F 61.8 °F 30.25 in ENE 2.2 mph 7 mph 76% 0.00 in 7 W/m2
19:14 69.6 °F 61.9 °F 30.25 in ENE 1.3 mph 7 mph 76.5% 0.00 in 0 W/m2
19:19 69.5 °F 61.9 °F 30.25 in East 1.6 mph 7 mph 77% 0.00 in 0 W/m2
19:24 69.3 °F 61.8 °F 30.25 in ENE 1 mph 7 mph 77.1% 0.00 in 0 W/m2
19:29 69.2 °F 61.9 °F 30.25 in East 2.5 mph 7 mph 77.6% 0.00 in 0 W/m2
19:34 69.1 °F 62.1 °F 30.24 in ENE 1.1 mph 7 mph 78.3% 0.00 in 0 W/m2
19:39 69 °F 62.3 °F 30.25 in NE 0.8 mph 5 mph 79.2% 0.00 in 0 W/m2
19:44 68.9 °F 62.5 °F 30.25 in NE 0.8 mph 6 mph 80% 0.00 in 0 W/m2
19:49 68.7 °F 62.2 °F 30.25 in East 0.9 mph 6 mph 79.9% 0.00 in 0 W/m2
19:54 68.5 °F 62.1 °F 30.25 in East 0.5 mph 6 mph 80% 0.00 in 0 W/m2
19:59 68.3 °F 61.9 °F 30.25 in East 0.7 mph 6 mph 80% 0.00 in 0 W/m2
20:00 68.2 °F 61.8 °F 30.25 in East 2 mph 6 mph 80% 0.00 in 0 W/m2
20:09 68 °F 61.3 °F 30.26 in ENE 1.7 mph 5 mph 79.2% 0.00 in 0 W/m2
20:14 67.9 °F 61.5 °F 30.26 in East 0.8 mph 5 mph 80% 0.00 in 0 W/m2
20:19 67.9 °F 61.4 °F 30.26 in East 2.6 mph 5 mph 79.7% 0.00 in 0 W/m2
20:24 67.8 °F 61.2 °F 30.26 in East 1 mph 6 mph 79.5% 0.00 in 0 W/m2
20:29 67.7 °F 61.3 °F 30.26 in East 1 mph 6 mph 80% 0.00 in 0 W/m2
20:34 67.6 °F 61.3 °F 30.26 in East 1.2 mph 6 mph 80.2% 0.00 in 0 W/m2
20:39 67.5 °F 61.9 °F 30.26 in Calm   6 mph 82.2% 0.02 in 0 W/m2
20:44 67.3 °F 62 °F 30.26 in Calm   6 mph 83% 0.03 in 0 W/m2
20:49 67 °F 62.1 °F 30.26 in NE 0.3 mph 6 mph 84.2% 0.03 in 0 W/m2
20:54 66.7 °F 61.9 °F 30.26 in ENE 0.5 mph 6 mph 84.6% 0.04 in 0 W/m2
20:59 66.3 °F 61.8 °F 30.26 in East 0.5 mph 6 mph 85.2% 0.04 in 0 W/m2
21:04 66 °F 61.4 °F 30.26 in Calm   6 mph 85.1% 0.04 in 0 W/m2
21:09 65.8 °F 61.5 °F 30.26 in Calm     86.2% 0.04 in 0 W/m2
21:14 65.6 °F 61.7 °F 30.26 in Calm     87% 0.04 in 0 W/m2
21:19 65.5 °F 61.5 °F 30.27 in Calm     87% 0.04 in 0 W/m2
21:24 65.4 °F 61.7 °F 30.27 in Calm     87.7% 0.04 in 0 W/m2
21:29 65.4 °F 61.7 °F 30.27 in Calm     88% 0.04 in 0 W/m2
21:34 65.3 °F 61.6 °F 30.26 in East 0.1 mph 2 mph 88% 0.04 in 0 W/m2
21:39 65.2 °F 61.5 °F 30.26 in East 0.2 mph 3 mph 88% 0.04 in 0 W/m2
21:44 65 °F 61.4 °F 30.26 in Calm   3 mph 88% 0.04 in 0 W/m2
21:49 65 °F 61.3 °F 30.26 in Calm   3 mph 88% 0.04 in 0 W/m2
21:54 64.9 °F 61.3 °F 30.26 in Calm   3 mph 88% 0.04 in 0 W/m2
21:59 64.9 °F 61.3 °F 30.26 in Calm   3 mph 88% 0.04 in 0 W/m2
22:04 64.9 °F 61.5 °F 30.26 in Calm   3 mph 88.6% 0.04 in 0 W/m2
22:09 65 °F 61.7 °F 30.26 in Calm     89% 0.00 in 0 W/m2
22:14 65 °F 61.7 °F 30.26 in Calm     89% 0.00 in 0 W/m2
22:19 64.9 °F 61.6 °F 30.26 in Calm     89% 0.00 in 0 W/m2
22:24 64.8 °F 61.4 °F 30.26 in Calm     88.8% 0.00 in 0 W/m2
22:29 64.7 °F 61.4 °F 30.26 in Calm     88.8% 0.01 in 0 W/m2
22:34 64.7 °F 61.1 °F 30.26 in Calm     88% 0.01 in 0 W/m2
22:39 64.6 °F 61.2 °F 30.26 in Calm     88.5% 0.02 in 0 W/m2
22:44 64.7 °F 61.4 °F 30.26 in Calm     89% 0.05 in 0 W/m2
22:49 64.8 °F 61.7 °F 30.26 in Calm     89.8% 0.09 in 0 W/m2
22:54 64.6 °F 61.6 °F 30.26 in Calm     90% 0.14 in 0 W/m2
22:59 64.5 °F 61.5 °F 30.26 in Calm   1 mph 90% 0.21 in 0 W/m2
23:04 64.3 °F 61.4 °F 30.27 in Calm   1 mph 90% 0.26 in 0 W/m2
23:09 64.2 °F 61.5 °F 30.27 in Calm     90.8% 0.27 in 0 W/m2
23:14 64 °F 61.4 °F 30.28 in Calm     91% 0.28 in 0 W/m2
23:19 63.9 °F 61.3 °F 30.28 in Calm     91.1% 0.28 in 0 W/m2
23:24 63.9 °F 61.5 °F 30.27 in Calm     92% 0.28 in 0 W/m2
23:29 63.8 °F 61.4 °F 30.27 in Calm     92% 0.28 in 0 W/m2
23:34 63.6 °F 61.3 °F 30.27 in Calm     92% 0.28 in 0 W/m2
23:39 63.5 °F 61.2 °F 30.27 in Calm     92% 0.27 in 0 W/m2
23:44 63.5 °F 61.1 °F 30.26 in Calm     92% 0.27 in 0 W/m2
23:49 63.4 °F 61.3 °F 30.26 in Calm     92.8% 0.27 in 0 W/m2
23:54 63.4 °F 61.4 °F 30.26 in Calm     93% 0.27 in 0 W/m2
23:59 63.5 °F 61.4 °F 30.26 in Calm     93% 0.27 in 0 W/m2
Hartford County Weather
Compliments of Weather Underground - 4 mb